METAR Data
IDs: Format: Raw Decoded Include TAF

Data at: 2056 UTC 15 Oct 2018

Region: TOP
KATL 152052Z 25009KT 10SM FEW035 SCT080 28/19 A3011 RMK AO2 SLP188 T02830189 55010

KBOS 152054Z 21013G23KT 10SM OVC012 18/16 A2988 RMK AO2 SLP119 T01830156 56041

KBWI 152054Z 22003KT 9SM -RA FEW065 BKN085 BKN110 OVC250 19/18 A2997 RMK AO2 SLP147 P0000 60002 T01890183 56020

KCLE 152051Z 27015G22KT 10SM FEW030 BKN039 OVC047 12/07 A3005 RMK AO2 PK WND 26026/2006 SLP176 T01220067 53015

KCLT 152052Z 22008KT 10SM SCT034 27/18 A3012 RMK AO2 SLP194 T02670178 56012

KCVG 152052Z 31012KT 10SM FEW022 BKN028 OVC060 11/07 A3016 RMK AO2 SLP210 T01110072 51012

KDCA 152052Z 20009KT 10SM FEW050 BKN100 OVC250 21/17 A2999 RMK AO2 RAE08 SLP153 P0001 60001 T02110172 58018

KDEN 152053Z 33009KT 10SM FEW110 08/M15 A3031 RMK AO2 SLP275 T00831150 56009

KDFW 152053Z 35014KT 6SM -RA BR OVC014 07/05 A3026 RMK AO2 SLP248 P0002 60002 T00670050 55014

KDTW 152053Z 27017G24KT 10SM FEW040 BKN200 11/M01 A3004 RMK AO2 PK WND 29026/2039 SLP173 T01061006 53015 $

KEWR 152051Z 20009KT 10SM BKN014 BKN046 OVC160 18/16 A2992 RMK AO2 PRESFR SLP130 T01830161 58021 $

KFLL 152053Z 10016KT 10SM FEW021 SCT025 29/26 A3003 RMK AO2 SLP167 T02940256 55004

KIAD 152052Z 21004KT 10SM -RA FEW075 BKN085 BKN110 18/18 A2999 RMK AO2 RAE1958B50 SLP153 P0000 60000 T01830178 56015

KIAH 152053Z 33010KT 10SM OVC008 15/14 A3005 RMK AO2 RAE26 SLP175 P0003 60003 T01500139 55002

KJFK 152051Z 21009KT 10SM FEW011 SCT048 SCT075 OVC160 18/18 A2995 RMK AO2 SLP142 T01830178 58020 $

KLAS 151956Z 03020G26KT 10SM CLR 18/M14 A3022 RMK AO2 PK WND 04026/1955 SLP224 T01831144

KLAX 152053Z 01013G18KT 10SM CLR 28/M16 A3001 RMK AO2 SLP163 T02781161 58016

KLGA 152051Z 22010KT 10SM FEW015 BKN050 OVC130 19/16 A2992 RMK AO2 SLP131 T01940156 58023 $

KMCO 152053Z 08008KT 10SM SCT042 32/23 A3005 RMK AO2 SLP174 T03220228 55007

KMDW 152053Z 28014G20KT 10SM FEW048 FEW250 09/M03 A3020 RMK AO2 SLP230 T00891033 55002

KMEM 152054Z 36011G19KT 10SM OVC010 11/10 A3024 RMK AO2 SLP239 T01110100 53016 $

KMIA 152053Z 10014KT 10SM SCT026 29/24 A3003 RMK AO2 SLP169 T02890239 55004

KMSP 152053Z 26014G20KT 10SM FEW045 07/M04 A3014 RMK AO2 SLP215 T00721039 56017

KORD 152051Z 28015G23KT 10SM FEW042 08/M03 A3018 RMK AO2 SLP223 T00831033 55003

KPDX 152053Z VRB03KT 10SM FEW250 20/02 A3027 RMK AO2 SLP248 T02000022 58018

KPHL 152054Z 22013G19KT 10SM FEW012 SCT080 BKN130 OVC260 20/17 A2995 RMK AO2 RAE20 SLP141 P0000 60000 T02000172 58016

KPHX 152051Z 06009KT 10SM FEW070 FEW090 24/04 A2993 RMK AO2 SLP121 T02440039 58021

KPIT 152051Z 29014KT 7SM -RA BKN011 OVC020 12/12 A2999 RMK AO2 SLP162 P0001 60016 T01220117 51021

KSAN 152051Z 26012KT 10SM FEW075 FEW110 27/M05 A2997 RMK AO2 SLP149 T02721050 58020

KSEA 152053Z 01005KT 10SM SCT250 18/06 A3034 RMK AO2 SLP281 T01780056 58008

KSFO 151956Z 13005KT 10SM CLR 24/M06 A3013 RMK AO2 SLP203 T02441061

KSLC 152054Z 31011KT 10SM FEW085 FEW200 08/M07 A3039 RMK AO2 SLP291 T00831072 58018

KSTL 152051Z 32009KT 10SM FEW032 FEW150 BKN250 09/00 A3032 RMK AO2 SLP270 T00890000 56003

KTPA 151953Z 08008KT 10SM BKN045 32/23 A3004